Погода Ариносна 2 недели

Минас-Жерайс, Бразилия

24 июля-06 августа
  • 24июля
    Сегодня
    +12°
    +30°
    Ясно и безоблачно
    ВремяПогодаТемператураВлажностьДавлениеВетер, м/сВероятность осадков
    00:00Ясно и безоблачно+17°C66 %719 мм2.0 м/с5 %
    03:00Ясно и безоблачно+14°C62 %719 мм1.8 м/с5 %
    06:00Ясно и безоблачно+13°C70 %719 мм1.7 м/с5 %
    09:00Ясно и безоблачно+19°C49 %722 мм0.1 м/с5 %
    12:00Ясно и безоблачно+26°C37 %722 мм2.5 м/с5 %
    15:00Ясно и безоблачно+30°C32 %719 мм0.4 м/с5 %
    18:00Практически безоблачно+25°C40 %719 мм2.5 м/с5 %
    21:00Ясно и безоблачно+22°C45 %720 мм0.0 м/с5 %
  • 25июля
    Четверг
    +12°
    +30°
    Ясно и безоблачно
    ВремяПогодаТемператураВлажностьДавлениеВетер, м/сВероятность осадков
    00:00Ясно и безоблачно+17°C66 %720 мм1.9 м/с5 %
    03:00Ясно и безоблачно+15°C71 %719 мм1.6 м/с5 %
    06:00Ясно и безоблачно+13°C73 %719 мм1.6 м/с5 %
    09:00Ясно и безоблачно+19°C50 %721 мм0.1 м/с5 %
    12:00Ясно и безоблачно+26°C38 %721 мм1.6 м/с5 %
    15:00Ясно и безоблачно+30°C31 %719 мм0.3 м/с5 %
    18:00Ясно и безоблачно+25°C41 %718 мм2.0 м/с5 %
    21:00Ясно и безоблачно+22°C45 %719 мм0.0 м/с5 %
  • 26июля
    Пятница
    +15°
    +32°
    Ясно и безоблачно
    ВремяПогодаТемператураВлажностьДавлениеВетер, м/сВероятность осадков
    00:00Ясно и безоблачно+19°C52 %718 мм1.1 м/с5 %
    03:00Ясно и безоблачно+15°C63 %717 мм1.4 м/с5 %
    06:00Ясно и безоблачно+13°C70 %717 мм0.4 м/с5 %
    09:00Ясно и безоблачно+19°C48 %720 мм0.0 м/с5 %
    12:00Ясно и безоблачно+28°C35 %720 мм1.7 м/с5 %
    15:00Ясно и безоблачно+31°C30 %718 мм0.3 м/с5 %
    18:00Ясно и безоблачно+27°C39 %717 мм2.2 м/с5 %
    21:00Ясно и безоблачно+23°C56 %718 мм0.0 м/с5 %
  • 27июля
    Суббота
    +16°
    +33°
    Небольшая облачность
    ВремяПогодаТемператураВлажностьДавлениеВетер, м/сВероятность осадков
    00:00Ясно и безоблачно+20°C56 %718 мм0.8 м/с5 %
    03:00Ясно и безоблачно+17°C69 %716 мм1.7 м/с5 %
    06:00Ясно и безоблачно+16°C66 %717 мм0.8 м/с5 %
    09:00Ясно и безоблачно+21°C53 %720 мм0.0 м/с5 %
    12:00Практически безоблачно+29°C43 %720 мм2.1 м/с5 %
    15:00Небольшая облачность+33°C34 %718 мм0.5 м/с5 %
    18:00Ясно и безоблачно+28°C43 %718 мм1.9 м/с5 %
    21:00Ясно и безоблачно+24°C53 %719 мм0.0 м/с5 %
  • 28июля
    Воскресенье
    +16°
    +34°
    Практически безоблачно
    ВремяПогодаТемператураВлажностьДавлениеВетер, м/сВероятность осадков
    00:00Практически безоблачно+23°C61 %719 мм0.8 м/с5 %
    03:00Небольшая облачность+19°C67 %717 мм1.7 м/с5 %
    06:00Ясно и безоблачно+17°C77 %718 мм1.5 м/с5 %
    09:00Ясно и безоблачно+22°C56 %721 мм0.1 м/с5 %
    12:00Ясно и безоблачно+30°C42 %720 мм2.3 м/с5 %
    15:00Практически безоблачно+34°C33 %718 мм0.5 м/с5 %
    18:00Облачно с прояснениями+28°C41 %718 мм1.9 м/с5 %
    21:00Небольшая облачность+25°C45 %719 мм0.0 м/с5 %
Мы используем cookies
Соглашаюсь